sensor_id;sensor_type;location;lat;lon;timestamp;pressure;altitude;pressure_sealevel;temperature;humidity
28167;BME280;15455;53.376;-6.262;2023-05-19T00:02:55;102619.16;;;12.58;100.00
28167;BME280;15455;53.376;-6.262;2023-05-19T00:05:41;102621.00;;;12.62;100.00
28167;BME280;15455;53.376;-6.262;2023-05-19T00:08:30;102620.22;;;12.66;100.00
28167;BME280;15455;53.376;-6.262;2023-05-19T00:11:16;102632.53;;;12.70;100.00
28167;BME280;15455;53.376;-6.262;2023-05-19T00:14:07;102628.22;;;12.74;100.00
28167;BME280;15455;53.376;-6.262;2023-05-19T00:16:54;102624.81;;;12.79;100.00
28167;BME280;15455;53.376;-6.262;2023-05-19T00:19:41;102630.13;;;12.82;100.00
28167;BME280;15455;53.376;-6.262;2023-05-19T00:22:29;102629.25;;;12.83;100.00
28167;BME280;15455;53.376;-6.262;2023-05-19T00:25:15;102625.78;;;12.83;100.00
28167;BME280;15455;53.376;-6.262;2023-05-19T00:28:00;102632.81;;;12.85;100.00
28167;BME280;15455;53.376;-6.262;2023-05-19T00:30:49;102625.81;;;12.86;100.00
28167;BME280;15455;53.376;-6.262;2023-05-19T00:33:35;102630.22;;;12.87;100.00
28167;BME280;15455;53.376;-6.262;2023-05-19T00:36:20;102637.19;;;12.86;100.00
28167;BME280;15455;53.376;-6.262;2023-05-19T00:39:06;102645.91;;;12.85;100.00
28167;BME280;15455;53.376;-6.262;2023-05-19T00:41:52;102645.00;;;12.85;100.00
28167;BME280;15455;53.376;-6.262;2023-05-19T00:44:40;102651.16;;;12.85;100.00
28167;BME280;15455;53.376;-6.262;2023-05-19T00:47:26;102662.41;;;12.80;100.00
28167;BME280;15455;53.376;-6.262;2023-05-19T00:50:12;102662.28;;;12.75;100.00
28167;BME280;15455;53.376;-6.262;2023-05-19T00:52:57;102664.81;;;12.71;100.00
28167;BME280;15455;53.376;-6.262;2023-05-19T00:55:43;102670.84;;;12.66;100.00
28167;BME280;15455;53.376;-6.262;2023-05-19T00:58:29;102677.72;;;12.60;100.00
28167;BME280;15455;53.376;-6.262;2023-05-19T01:01:17;102684.56;;;12.53;100.00
28167;BME280;15455;53.376;-6.262;2023-05-19T01:04:04;102688.72;;;12.43;100.00
28167;BME280;15455;53.376;-6.262;2023-05-19T01:06:50;102677.09;;;12.30;100.00
28167;BME280;15455;53.376;-6.262;2023-05-19T01:09:39;102678.72;;;12.24;100.00
28167;BME280;15455;53.376;-6.262;2023-05-19T01:12:26;102675.88;;;12.14;100.00
28167;BME280;15455;53.376;-6.262;2023-05-19T01:15:12;102665.22;;;12.05;100.00
28167;BME280;15455;53.376;-6.262;2023-05-19T01:18:13;102652.78;;;11.95;100.00
28167;BME280;15455;53.376;-6.262;2023-05-19T01:30:31;102611.63;;;11.89;100.00
28167;BME280;15455;53.376;-6.262;2023-05-19T01:33:20;102607.19;;;11.85;100.00
28167;BME280;15455;53.376;-6.262;2023-05-19T01:36:07;102602.81;;;11.86;100.00
28167;BME280;15455;53.376;-6.262;2023-05-19T01:38:56;102599.34;;;11.87;100.00
28167;BME280;15455;53.376;-6.262;2023-05-19T01:41:43;102605.44;;;11.86;100.00
28167;BME280;15455;53.376;-6.262;2023-05-19T01:44:31;102603.66;;;11.83;100.00
28167;BME280;15455;53.376;-6.262;2023-05-19T01:47:17;102602.72;;;11.81;100.00
28167;BME280;15455;53.376;-6.262;2023-05-19T01:50:03;102607.09;;;11.80;100.00
28167;BME280;15455;53.376;-6.262;2023-05-19T01:52:49;102612.19;;;11.74;100.00
28167;BME280;15455;53.376;-6.262;2023-05-19T01:55:48;102607.78;;;11.73;100.00
28167;BME280;15455;53.376;-6.262;2023-05-19T01:58:52;102613.75;;;11.68;100.00
28167;BME280;15455;53.376;-6.262;2023-05-19T02:04:44;102623.97;;;11.57;100.00
28167;BME280;15455;53.376;-6.262;2023-05-19T02:07:41;102625.59;;;11.52;100.00
28167;BME280;15455;53.376;-6.262;2023-05-19T02:10:28;102619.44;;;11.50;100.00
28167;BME280;15455;53.376;-6.262;2023-05-19T02:13:19;102621.84;;;11.40;100.00
28167;BME280;15455;53.376;-6.262;2023-05-19T02:16:06;102631.22;;;11.32;100.00
28167;BME280;15455;53.376;-6.262;2023-05-19T02:18:52;102631.94;;;11.26;100.00
28167;BME280;15455;53.376;-6.262;2023-05-19T02:21:38;102633.50;;;11.18;100.00
28167;BME280;15455;53.376;-6.262;2023-05-19T02:24:23;102636.91;;;11.16;100.00
28167;BME280;15455;53.376;-6.262;2023-05-19T02:27:08;102636.88;;;11.14;100.00
28167;BME280;15455;53.376;-6.262;2023-05-19T02:29:54;102641.97;;;11.09;100.00
28167;BME280;15455;53.376;-6.262;2023-05-19T02:32:40;102645.34;;;11.05;100.00
28167;BME280;15455;53.376;-6.262;2023-05-19T02:35:27;102649.59;;;11.02;100.00
28167;BME280;15455;53.376;-6.262;2023-05-19T02:38:12;102643.41;;;10.97;100.00
28167;BME280;15455;53.376;-6.262;2023-05-19T02:40:58;102644.16;;;10.92;100.00
28167;BME280;15455;53.376;-6.262;2023-05-19T02:43:43;102650.88;;;10.84;100.00
28167;BME280;15455;53.376;-6.262;2023-05-19T02:46:29;102654.13;;;10.75;100.00
28167;BME280;15455;53.376;-6.262;2023-05-19T02:49:14;102654.72;;;10.65;100.00
28167;BME280;15455;53.376;-6.262;2023-05-19T02:52:04;102655.34;;;10.56;100.00
28167;BME280;15455;53.376;-6.262;2023-05-19T02:54:49;102656.75;;;10.45;100.00
28167;BME280;15455;53.376;-6.262;2023-05-19T02:57:35;102669.59;;;10.37;100.00
28167;BME280;15455;53.376;-6.262;2023-05-19T03:00:21;102668.41;;;10.28;100.00
28167;BME280;15455;53.376;-6.262;2023-05-19T03:03:07;102665.56;;;10.20;100.00
28167;BME280;15455;53.376;-6.262;2023-05-19T03:05:55;102666.28;;;10.14;100.00
28167;BME280;15455;53.376;-6.262;2023-05-19T03:08:40;102666.06;;;10.08;100.00
28167;BME280;15455;53.376;-6.262;2023-05-19T03:11:26;102660.66;;;10.02;100.00
28167;BME280;15455;53.376;-6.262;2023-05-19T03:14:13;102666.63;;;9.98;100.00
28167;BME280;15455;53.376;-6.262;2023-05-19T03:16:58;102672.53;;;9.92;100.00
28167;BME280;15455;53.376;-6.262;2023-05-19T03:19:44;102670.69;;;9.88;100.00
28167;BME280;15455;53.376;-6.262;2023-05-19T03:22:30;102667.13;;;9.86;100.00
28167;BME280;15455;53.376;-6.262;2023-05-19T03:25:16;102668.72;;;9.81;100.00
28167;BME280;15455;53.376;-6.262;2023-05-19T03:28:01;102668.59;;;9.78;100.00
28167;BME280;15455;53.376;-6.262;2023-05-19T03:30:48;102663.19;;;9.71;100.00
28167;BME280;15455;53.376;-6.262;2023-05-19T03:33:38;102667.50;;;9.69;100.00
28167;BME280;15455;53.376;-6.262;2023-05-19T03:36:23;102666.53;;;9.67;100.00
28167;BME280;15455;53.376;-6.262;2023-05-19T03:39:09;102677.75;;;9.65;100.00
28167;BME280;15455;53.376;-6.262;2023-05-19T03:41:55;102681.16;;;9.62;100.00
28167;BME280;15455;53.376;-6.262;2023-05-19T03:44:40;102677.69;;;9.63;100.00
28167;BME280;15455;53.376;-6.262;2023-05-19T03:47:27;102679.38;;;9.61;100.00
28167;BME280;15455;53.376;-6.262;2023-05-19T03:50:35;102690.69;;;9.62;100.00
28167;BME280;15455;53.376;-6.262;2023-05-19T03:53:32;102692.31;;;9.58;100.00
28167;BME280;15455;53.376;-6.262;2023-05-19T03:56:18;102693.19;;;9.59;100.00
28167;BME280;15455;53.376;-6.262;2023-05-19T03:59:07;102700.88;;;9.54;100.00
28167;BME280;15455;53.376;-6.262;2023-05-19T04:01:54;102695.56;;;9.51;100.00
28167;BME280;15455;53.376;-6.262;2023-05-19T04:04:43;102689.41;;;9.49;100.00
28167;BME280;15455;53.376;-6.262;2023-05-19T04:07:29;102696.19;;;9.44;100.00
28167;BME280;15455;53.376;-6.262;2023-05-19T04:10:15;102694.41;;;9.43;100.00
28167;BME280;15455;53.376;-6.262;2023-05-19T04:13:00;102700.41;;;9.40;100.00
28167;BME280;15455;53.376;-6.262;2023-05-19T04:15:46;102706.41;;;9.37;100.00
28167;BME280;15455;53.376;-6.262;2023-05-19T04:18:31;102711.50;;;9.34;100.00
28167;BME280;15455;53.376;-6.262;2023-05-19T04:21:17;102709.69;;;9.32;100.00
28167;BME280;15455;53.376;-6.262;2023-05-19T04:24:02;102717.47;;;9.30;100.00
28167;BME280;15455;53.376;-6.262;2023-05-19T04:26:51;102725.22;;;9.29;100.00
28167;BME280;15455;53.376;-6.262;2023-05-19T04:29:38;102726.88;;;9.27;100.00
28167;BME280;15455;53.376;-6.262;2023-05-19T04:32:24;102730.25;;;9.24;100.00
28167;BME280;15455;53.376;-6.262;2023-05-19T04:35:12;102738.03;;;9.23;100.00
28167;BME280;15455;53.376;-6.262;2023-05-19T04:37:58;102736.38;;;9.25;100.00
28167;BME280;15455;53.376;-6.262;2023-05-19T04:40:49;102738.97;;;9.25;100.00
28167;BME280;15455;53.376;-6.262;2023-05-19T04:43:36;102744.25;;;9.26;100.00
28167;BME280;15455;53.376;-6.262;2023-05-19T04:46:26;102749.50;;;9.28;100.00
28167;BME280;15455;53.376;-6.262;2023-05-19T04:49:15;102743.38;;;9.27;100.00
28167;BME280;15455;53.376;-6.262;2023-05-19T04:52:00;102755.59;;;9.28;100.00
28167;BME280;15455;53.376;-6.262;2023-05-19T04:54:47;102761.63;;;9.27;100.00
28167;BME280;15455;53.376;-6.262;2023-05-19T04:57:32;102762.47;;;9.26;100.00
28167;BME280;15455;53.376;-6.262;2023-05-19T05:00:19;102752.00;;;9.25;100.00
28167;BME280;15455;53.376;-6.262;2023-05-19T05:03:31;102758.16;;;9.27;100.00
28167;BME280;15455;53.376;-6.262;2023-05-19T05:06:22;102751.19;;;9.27;100.00
28167;BME280;15455;53.376;-6.262;2023-05-19T05:09:07;102762.59;;;9.29;100.00
28167;BME280;15455;53.376;-6.262;2023-05-19T05:11:55;102766.06;;;9.30;100.00
28167;BME280;15455;53.376;-6.262;2023-05-19T05:14:42;102764.38;;;9.30;100.00
28167;BME280;15455;53.376;-6.262;2023-05-19T05:17:28;102752.22;;;9.31;100.00
28167;BME280;15455;53.376;-6.262;2023-05-19T05:20:14;102759.22;;;9.32;100.00
28167;BME280;15455;53.376;-6.262;2023-05-19T05:23:00;102763.56;;;9.33;100.00
28167;BME280;15455;53.376;-6.262;2023-05-19T05:25:49;102775.72;;;9.32;100.00
28167;BME280;15455;53.376;-6.262;2023-05-19T05:28:36;102772.28;;;9.33;100.00
28167;BME280;15455;53.376;-6.262;2023-05-19T05:31:22;102759.25;;;9.33;100.00
28167;BME280;15455;53.376;-6.262;2023-05-19T05:34:09;102762.84;;;9.37;100.00
28167;BME280;15455;53.376;-6.262;2023-05-19T05:36:54;102760.28;;;9.38;100.00
28167;BME280;15455;53.376;-6.262;2023-05-19T05:39:40;102768.16;;;9.40;100.00
28167;BME280;15455;53.376;-6.262;2023-05-19T05:42:25;102769.06;;;9.41;100.00
28167;BME280;15455;53.376;-6.262;2023-05-19T05:45:14;102770.81;;;9.42;100.00
28167;BME280;15455;53.376;-6.262;2023-05-19T05:48:00;102773.56;;;9.45;100.00
28167;BME280;15455;53.376;-6.262;2023-05-19T05:50:49;102775.34;;;9.47;100.00
28167;BME280;15455;53.376;-6.262;2023-05-19T05:53:43;102773.75;;;9.51;100.00
28167;BME280;15455;53.376;-6.262;2023-05-19T05:56:33;102768.69;;;9.55;100.00
28167;BME280;15455;53.376;-6.262;2023-05-19T05:59:22;102769.72;;;9.59;100.00
28167;BME280;15455;53.376;-6.262;2023-05-19T06:02:08;102765.41;;;9.61;100.00
28167;BME280;15455;53.376;-6.262;2023-05-19T06:04:53;102772.50;;;9.65;100.00
28167;BME280;15455;53.376;-6.262;2023-05-19T06:07:39;102763.78;;;9.65;100.00
28167;BME280;15455;53.376;-6.262;2023-05-19T06:10:27;102752.69;;;9.70;100.00
28167;BME280;15455;53.376;-6.262;2023-05-19T06:13:13;102763.34;;;9.77;100.00
28167;BME280;15455;53.376;-6.262;2023-05-19T06:16:03;102757.44;;;9.82;100.00
28167;BME280;15455;53.376;-6.262;2023-05-19T06:18:56;102768.06;;;9.88;100.00
28167;BME280;15455;53.376;-6.262;2023-05-19T06:21:43;102769.00;;;9.90;100.00
28167;BME280;15455;53.376;-6.262;2023-05-19T06:24:28;102766.47;;;9.94;100.00
28167;BME280;15455;53.376;-6.262;2023-05-19T06:27:15;102776.19;;;9.98;100.00
28167;BME280;15455;53.376;-6.262;2023-05-19T06:30:01;102771.91;;;10.00;100.00
28167;BME280;15455;53.376;-6.262;2023-05-19T06:32:51;102757.91;;;9.98;100.00
28167;BME280;15455;53.376;-6.262;2023-05-19T06:35:37;102757.88;;;9.96;100.00
28167;BME280;15455;53.376;-6.262;2023-05-19T06:38:23;102764.88;;;9.97;100.00
28167;BME280;15455;53.376;-6.262;2023-05-19T06:41:10;102757.09;;;9.99;100.00
28167;BME280;15455;53.376;-6.262;2023-05-19T06:43:55;102757.28;;;10.05;100.00
28167;BME280;15455;53.376;-6.262;2023-05-19T06:46:40;102749.56;;;10.08;100.00
28167;BME280;15455;53.376;-6.262;2023-05-19T06:49:26;102763.69;;;10.15;100.00
28167;BME280;15455;53.376;-6.262;2023-05-19T06:52:13;102757.78;;;10.20;100.00
28167;BME280;15455;53.376;-6.262;2023-05-19T06:54:59;102752.69;;;10.25;100.00
28167;BME280;15455;53.376;-6.262;2023-05-19T06:57:45;102756.34;;;10.30;100.00
28167;BME280;15455;53.376;-6.262;2023-05-19T07:00:31;102761.47;;;10.27;100.00
28167;BME280;15455;53.376;-6.262;2023-05-19T07:03:18;102759.97;;;10.34;100.00
28167;BME280;15455;53.376;-6.262;2023-05-19T07:06:04;102765.31;;;10.38;100.00
28167;BME280;15455;53.376;-6.262;2023-05-19T07:08:53;102771.44;;;10.39;100.00
28167;BME280;15455;53.376;-6.262;2023-05-19T07:11:38;102763.66;;;10.40;100.00
28167;BME280;15455;53.376;-6.262;2023-05-19T07:14:25;102774.16;;;10.42;100.00
28167;BME280;15455;53.376;-6.262;2023-05-19T07:17:10;102774.28;;;10.47;100.00
28167;BME280;15455;53.376;-6.262;2023-05-19T07:20:01;102780.69;;;10.56;100.00
28167;BME280;15455;53.376;-6.262;2023-05-19T07:22:47;102782.69;;;10.65;100.00
28167;BME280;15455;53.376;-6.262;2023-05-19T07:25:32;102789.91;;;10.74;100.00
28167;BME280;15455;53.376;-6.262;2023-05-19T07:28:18;102801.34;;;10.77;100.00
28167;BME280;15455;53.376;-6.262;2023-05-19T07:31:03;102802.38;;;10.84;100.00
28167;BME280;15455;53.376;-6.262;2023-05-19T07:33:48;102807.69;;;10.87;100.00
28167;BME280;15455;53.376;-6.262;2023-05-19T07:36:37;102804.28;;;10.90;100.00
28167;BME280;15455;53.376;-6.262;2023-05-19T07:39:22;102801.81;;;10.94;100.00
28167;BME280;15455;53.376;-6.262;2023-05-19T07:42:10;102788.91;;;10.99;100.00
28167;BME280;15455;53.376;-6.262;2023-05-19T07:44:56;102796.09;;;11.06;100.00
28167;BME280;15455;53.376;-6.262;2023-05-19T07:47:41;102786.00;;;11.20;100.00
28167;BME280;15455;53.376;-6.262;2023-05-19T07:50:27;102791.63;;;11.34;100.00
28167;BME280;15455;53.376;-6.262;2023-05-19T07:53:13;102787.66;;;11.49;100.00
28167;BME280;15455;53.376;-6.262;2023-05-19T07:55:59;102787.00;;;11.57;100.00
28167;BME280;15455;53.376;-6.262;2023-05-19T07:58:45;102774.97;;;11.65;100.00
28167;BME280;15455;53.376;-6.262;2023-05-19T08:01:30;102780.50;;;11.76;100.00
28167;BME280;15455;53.376;-6.262;2023-05-19T08:04:16;102777.34;;;11.90;100.00
28167;BME280;15455;53.376;-6.262;2023-05-19T08:07:02;102772.38;;;11.99;100.00
28167;BME280;15455;53.376;-6.262;2023-05-19T08:09:48;102772.34;;;11.97;100.00
28167;BME280;15455;53.376;-6.262;2023-05-19T08:12:33;102771.47;;;11.98;100.00
28167;BME280;15455;53.376;-6.262;2023-05-19T08:15:19;102782.13;;;12.05;100.00
28167;BME280;15455;53.376;-6.262;2023-05-19T08:18:05;102788.44;;;12.14;100.00
28167;BME280;15455;53.376;-6.262;2023-05-19T08:20:51;102793.50;;;12.07;100.00
28167;BME280;15455;53.376;-6.262;2023-05-19T08:23:36;102797.19;;;12.15;100.00
28167;BME280;15455;53.376;-6.262;2023-05-19T08:26:22;102792.97;;;12.22;100.00
28167;BME280;15455;53.376;-6.262;2023-05-19T08:29:08;102795.81;;;12.31;100.00
28167;BME280;15455;53.376;-6.262;2023-05-19T08:31:53;102804.56;;;12.31;100.00
28167;BME280;15455;53.376;-6.262;2023-05-19T08:34:40;102796.84;;;12.38;100.00
28167;BME280;15455;53.376;-6.262;2023-05-19T08:37:25;102797.03;;;12.45;100.00
28167;BME280;15455;53.376;-6.262;2023-05-19T08:40:15;102790.06;;;12.47;100.00
28167;BME280;15455;53.376;-6.262;2023-05-19T08:43:02;102786.63;;;12.48;100.00
28167;BME280;15455;53.376;-6.262;2023-05-19T08:45:47;102790.34;;;12.58;100.00
28167;BME280;15455;53.376;-6.262;2023-05-19T08:48:34;102786.94;;;12.62;100.00
28167;BME280;15455;53.376;-6.262;2023-05-19T08:54:32;102784.50;;;12.72;100.00
28167;BME280;15455;53.376;-6.262;2023-05-19T08:57:20;102783.75;;;12.77;100.00
28167;BME280;15455;53.376;-6.262;2023-05-19T09:00:08;102780.16;;;12.74;100.00
28167;BME280;15455;53.376;-6.262;2023-05-19T09:02:56;102778.13;;;12.59;100.00
28167;BME280;15455;53.376;-6.262;2023-05-19T09:05:50;102775.72;;;12.69;100.00
28167;BME280;15455;53.376;-6.262;2023-05-19T09:08:36;102781.88;;;12.72;100.00
28167;BME280;15455;53.376;-6.262;2023-05-19T09:11:22;102775.91;;;12.79;100.00
28167;BME280;15455;53.376;-6.262;2023-05-19T09:14:07;102773.44;;;12.86;100.00
28167;BME280;15455;53.376;-6.262;2023-05-19T09:16:53;102773.69;;;12.97;100.00
28167;BME280;15455;53.376;-6.262;2023-05-19T09:19:43;102770.25;;;13.00;100.00
28167;BME280;15455;53.376;-6.262;2023-05-19T09:22:28;102762.44;;;13.03;100.00
28167;BME280;15455;53.376;-6.262;2023-05-19T09:25:21;102756.47;;;13.10;100.00
28167;BME280;15455;53.376;-6.262;2023-05-19T09:28:07;102752.16;;;13.14;100.00
28167;BME280;15455;53.376;-6.262;2023-05-19T09:33:45;102762.88;;;13.26;100.00
28167;BME280;15455;53.376;-6.262;2023-05-19T09:36:30;102763.13;;;13.38;100.00
28167;BME280;15455;53.376;-6.262;2023-05-19T09:39:18;102752.97;;;13.57;100.00
28167;BME280;15455;53.376;-6.262;2023-05-19T09:42:04;102753.84;;;13.58;100.00
28167;BME280;15455;53.376;-6.262;2023-05-19T09:44:58;102742.69;;;13.69;100.00
28167;BME280;15455;53.376;-6.262;2023-05-19T09:47:43;102758.63;;;13.82;100.00
28167;BME280;15455;53.376;-6.262;2023-05-19T09:50:29;102757.03;;;13.90;100.00
28167;BME280;15455;53.376;-6.262;2023-05-19T09:53:15;102765.88;;;13.97;100.00
28167;BME280;15455;53.376;-6.262;2023-05-19T09:56:01;102758.84;;;13.94;100.00
28167;BME280;15455;53.376;-6.262;2023-05-19T09:58:48;102762.28;;;13.90;100.00
28167;BME280;15455;53.376;-6.262;2023-05-19T10:01:34;102762.28;;;13.90;100.00
28167;BME280;15455;53.376;-6.262;2023-05-19T10:04:22;102764.19;;;14.00;100.00
28167;BME280;15455;53.376;-6.262;2023-05-19T10:07:08;102754.69;;;14.09;100.00
28167;BME280;15455;53.376;-6.262;2023-05-19T10:09:55;102763.44;;;14.09;100.00
28167;BME280;15455;53.376;-6.262;2023-05-19T10:12:42;102760.09;;;14.19;100.00
28167;BME280;15455;53.376;-6.262;2023-05-19T10:15:29;102757.47;;;14.21;100.00
28167;BME280;15455;53.376;-6.262;2023-05-19T10:18:16;102760.00;;;14.13;100.00
28167;BME280;15455;53.376;-6.262;2023-05-19T10:21:02;102756.53;;;14.14;100.00
28167;BME280;15455;53.376;-6.262;2023-05-19T10:23:48;102761.84;;;14.19;100.00
28167;BME280;15455;53.376;-6.262;2023-05-19T10:26:34;102759.28;;;14.23;100.00
28167;BME280;15455;53.376;-6.262;2023-05-19T10:29:29;102766.63;;;14.46;100.00
28167;BME280;15455;53.376;-6.262;2023-05-19T10:32:24;102764.19;;;14.62;100.00
28167;BME280;15455;53.376;-6.262;2023-05-19T10:44:48;102759.06;;;14.69;100.00
28167;BME280;15455;53.376;-6.262;2023-05-19T10:47:40;102754.69;;;14.70;100.00
28167;BME280;15455;53.376;-6.262;2023-05-19T10:50:25;102762.72;;;14.81;100.00
28167;BME280;15455;53.376;-6.262;2023-05-19T10:53:15;102770.75;;;14.94;100.00
28167;BME280;15455;53.376;-6.262;2023-05-19T10:56:02;102757.53;;;14.87;100.00
28167;BME280;15455;53.376;-6.262;2023-05-19T10:58:48;102762.81;;;14.88;100.00
28167;BME280;15455;53.376;-6.262;2023-05-19T11:01:34;102765.59;;;15.02;100.00
28167;BME280;15455;53.376;-6.262;2023-05-19T11:05:05;102766.53;;;15.09;100.00
28167;BME280;15455;53.376;-6.262;2023-05-19T11:07:56;102769.72;;;14.82;100.00
28167;BME280;15455;53.376;-6.262;2023-05-19T11:10:50;102777.44;;;14.66;100.00
28167;BME280;15455;53.376;-6.262;2023-05-19T11:13:36;102762.56;;;14.68;100.00
28167;BME280;15455;53.376;-6.262;2023-05-19T11:16:30;102773.16;;;14.76;100.00
28167;BME280;15455;53.376;-6.262;2023-05-19T11:19:27;102768.50;;;14.56;100.00
28167;BME280;15455;53.376;-6.262;2023-05-19T11:22:13;102771.22;;;14.63;100.00
28167;BME280;15455;53.376;-6.262;2023-05-19T11:24:59;102760.75;;;14.66;100.00
28167;BME280;15455;53.376;-6.262;2023-05-19T11:27:45;102771.41;;;14.75;100.00
28167;BME280;15455;53.376;-6.262;2023-05-19T11:30:30;102772.91;;;14.57;100.00
28167;BME280;15455;53.376;-6.262;2023-05-19T11:33:18;102779.88;;;14.55;100.00
28167;BME280;15455;53.376;-6.262;2023-05-19T11:36:05;102781.50;;;14.47;100.00
28167;BME280;15455;53.376;-6.262;2023-05-19T11:38:50;102782.09;;;14.28;100.00
28167;BME280;15455;53.376;-6.262;2023-05-19T11:41:39;102778.63;;;14.29;100.00
28167;BME280;15455;53.376;-6.262;2023-05-19T11:44:25;102772.66;;;14.40;100.00
28167;BME280;15455;53.376;-6.262;2023-05-19T11:47:11;102774.78;;;14.65;100.00
28167;BME280;15455;53.376;-6.262;2023-05-19T11:49:57;102776.84;;;14.90;100.00
28167;BME280;15455;53.376;-6.262;2023-05-19T11:52:43;102763.06;;;15.13;100.00
28167;BME280;15455;53.376;-6.262;2023-05-19T11:55:29;102771.03;;;15.19;100.00
28167;BME280;15455;53.376;-6.262;2023-05-19T11:58:15;102770.94;;;15.08;100.00
28167;BME280;15455;53.376;-6.262;2023-05-19T12:01:03;102763.06;;;15.10;100.00
28167;BME280;15455;53.376;-6.262;2023-05-19T12:03:49;102772.81;;;15.22;100.00
28167;BME280;15455;53.376;-6.262;2023-05-19T12:06:34;102767.78;;;15.43;100.00
28167;BME280;15455;53.376;-6.262;2023-05-19T12:09:22;102766.19;;;15.64;100.00
28167;BME280;15455;53.376;-6.262;2023-05-19T12:12:08;102767.09;;;15.65;100.00
28167;BME280;15455;53.376;-6.262;2023-05-19T12:14:53;102765.38;;;15.70;100.00
28167;BME280;15455;53.376;-6.262;2023-05-19T12:17:39;102763.66;;;15.70;100.00
28167;BME280;15455;53.376;-6.262;2023-05-19T12:20:25;102771.47;;;15.64;100.00
28167;BME280;15455;53.376;-6.262;2023-05-19T12:23:11;102768.09;;;15.76;100.00
28167;BME280;15455;53.376;-6.262;2023-05-19T12:26:00;102765.63;;;15.96;100.00
28167;BME280;15455;53.376;-6.262;2023-05-19T12:28:46;102761.38;;;16.13;100.00
28167;BME280;15455;53.376;-6.262;2023-05-19T12:31:33;102754.34;;;16.11;100.00
28167;BME280;15455;53.376;-6.262;2023-05-19T12:34:19;102755.22;;;16.13;100.00
28167;BME280;15455;53.376;-6.262;2023-05-19T12:37:05;102759.50;;;16.02;100.00
28167;BME280;15455;53.376;-6.262;2023-05-19T12:39:50;102759.63;;;16.19;100.00
28167;BME280;15455;53.376;-6.262;2023-05-19T12:42:36;102763.22;;;16.30;100.00
28167;BME280;15455;53.376;-6.262;2023-05-19T12:45:21;102766.84;;;16.49;100.00
28167;BME280;15455;53.376;-6.262;2023-05-19T12:48:10;102760.81;;;16.69;100.00
28167;BME280;15455;53.376;-6.262;2023-05-19T12:50:57;102757.34;;;16.87;100.00
28167;BME280;15455;53.376;-6.262;2023-05-19T12:53:42;102754.69;;;16.85;100.00
28167;BME280;15455;53.376;-6.262;2023-05-19T12:56:28;102763.44;;;16.73;100.00
28167;BME280;15455;53.376;-6.262;2023-05-19T12:59:23;102754.69;;;16.87;100.00
28167;BME280;15455;53.376;-6.262;2023-05-19T13:02:23;102771.47;;;16.92;100.00
28167;BME280;15455;53.376;-6.262;2023-05-19T13:05:09;102757.44;;;17.05;100.00
28167;BME280;15455;53.376;-6.262;2023-05-19T13:07:59;102766.25;;;17.09;100.00
28167;BME280;15455;53.376;-6.262;2023-05-19T13:10:46;102768.91;;;17.19;100.00
28167;BME280;15455;53.376;-6.262;2023-05-19T13:13:32;102763.66;;;17.35;100.00
28167;BME280;15455;53.376;-6.262;2023-05-19T13:16:18;102760.16;;;17.41;100.00
28167;BME280;15455;53.376;-6.262;2023-05-19T13:19:03;102761.91;;;17.37;100.00
28167;BME280;15455;53.376;-6.262;2023-05-19T13:21:50;102760.13;;;17.21;100.00
28167;BME280;15455;53.376;-6.262;2023-05-19T13:24:36;102760.13;;;17.22;100.00
28167;BME280;15455;53.376;-6.262;2023-05-19T13:27:21;102761.91;;;17.42;100.00
28167;BME280;15455;53.376;-6.262;2023-05-19T13:30:09;102756.66;;;17.52;100.00
28167;BME280;15455;53.376;-6.262;2023-05-19T13:32:54;102752.25;;;17.67;100.00
28167;BME280;15455;53.376;-6.262;2023-05-19T13:35:40;102754.00;;;17.77;100.00
28167;BME280;15455;53.376;-6.262;2023-05-19T13:38:26;102743.47;;;17.97;100.00
28167;BME280;15455;53.376;-6.262;2023-05-19T13:41:11;102756.66;;;17.96;100.00
28167;BME280;15455;53.376;-6.262;2023-05-19T13:44:00;102754.88;;;17.88;100.00
28167;BME280;15455;53.376;-6.262;2023-05-19T13:46:45;102751.38;;;18.03;100.00
28167;BME280;15455;53.376;-6.262;2023-05-19T13:49:33;102756.66;;;17.97;100.00
28167;BME280;15455;53.376;-6.262;2023-05-19T13:52:19;102746.97;;;17.98;100.00
28167;BME280;15455;53.376;-6.262;2023-05-19T13:55:05;102752.25;;;17.88;100.00
28167;BME280;15455;53.376;-6.262;2023-05-19T13:57:52;102755.78;;;17.95;100.00
28167;BME280;15455;53.376;-6.262;2023-05-19T14:00:37;102745.19;;;18.23;100.00
28167;BME280;15455;53.376;-6.262;2023-05-19T14:03:23;102750.41;;;18.38;100.00
28167;BME280;15455;53.376;-6.262;2023-05-19T14:06:09;102745.19;;;18.25;100.00
28167;BME280;15455;53.376;-6.262;2023-05-19T14:08:54;102743.38;;;18.28;100.00
28167;BME280;15455;53.376;-6.262;2023-05-19T14:11:40;102741.69;;;17.98;100.00
28167;BME280;15455;53.376;-6.262;2023-05-19T14:14:26;102738.16;;;17.83;100.00
28167;BME280;15455;53.376;-6.262;2023-05-19T14:17:11;102740.81;;;17.76;100.00
28167;BME280;15455;53.376;-6.262;2023-05-19T14:19:56;102743.44;;;17.90;100.00
28167;BME280;15455;53.376;-6.262;2023-05-19T14:22:41;102738.13;;;18.10;100.00
28167;BME280;15455;53.376;-6.262;2023-05-19T14:25:27;102739.91;;;18.09;100.00
28167;BME280;15455;53.376;-6.262;2023-05-19T14:28:12;102745.16;;;18.26;100.00
28167;BME280;15455;53.376;-6.262;2023-05-19T14:30:58;102736.28;;;18.46;100.00
28167;BME280;15455;53.376;-6.262;2023-05-19T14:33:43;102737.91;;;18.81;100.00
28167;BME280;15455;53.376;-6.262;2023-05-19T14:36:28;102737.78;;;19.10;100.00
28167;BME280;15455;53.376;-6.262;2023-05-19T14:39:15;102730.84;;;18.89;100.00
28167;BME280;15455;53.376;-6.262;2023-05-19T14:42:00;102734.25;;;19.08;100.00
28167;BME280;15455;53.376;-6.262;2023-05-19T14:44:46;102726.44;;;18.80;100.00